Time;durP1;ratioP1;P1;durP2;ratioP2;P2;SDS_P1;SDS_P2;PMS_P1;PMS_P2;Temp;Humidity;BMP_temperature;BMP_pressure;BME280_temperature;BME280_humidity;BME280_pressure;Samples;Min_cycle;Max_cycle;Signal;HPM_P1;HPM_P2
2022/12/09 00:00:46;;;;;;;;;;;;;;;;;;4981519;28;19933;-59
2022/12/09 00:03:12;;;;;;;;;;;;;;;;;;4974020;28;19925;-58
2022/12/09 00:05:38;;;;;;;;;;;;;;;;;;4987874;28;19936;-60
2022/12/09 00:08:04;;;;;;;;;;;;;;;;;;4991614;28;20286;-60
2022/12/09 00:10:29;;;;;;;;;;;;;;;;;;4979737;28;19929;-59
2022/12/09 00:12:55;;;;;;;;;;;;;;;;;;4978066;28;20008;-58
2022/12/09 00:15:21;;;;;;;;;;;;;;;;;;4970216;28;20807;-60
2022/12/09 00:17:47;;;;;;;;;;;;;;;;;;4992860;28;20007;-60
2022/12/09 00:20:13;;;;;;;;;;;;;;;;;;4975980;28;20281;-60
2022/12/09 00:22:39;;;;;;;;;;;;;;;;;;5000761;28;19917;-59
2022/12/09 00:25:05;;;;;;;;;;;;;;;;;;4993704;28;19925;-59
2022/12/09 00:27:31;;;;;;;;;;;;;;;;;;4985380;28;20394;-59
2022/12/09 00:29:56;;;;;;;;;;;;;;;;;;4985337;28;20429;-61
2022/12/09 00:32:22;;;;;;;;;;;;;;;;;;4996648;28;19928;-61
2022/12/09 00:34:48;;;;;;;;;;;;;;;;;;4985036;28;19922;-59
2022/12/09 00:37:14;;;;;;;;;;;;;;;;;;5002058;28;20297;-61
2022/12/09 00:39:40;;;;;;;;;;;;;;;;;;4995050;28;19924;-59
2022/12/09 00:42:06;;;;;;;;;;;;;;;;;;4989075;28;19925;-61
2022/12/09 00:44:32;;;;;;;;;;;;;;;;;;5010180;28;19925;-59
2022/12/09 00:46:57;;;;;;;;;;;;;;;;;;5002971;28;20333;-59
2022/12/09 00:49:23;;;;;;;;;;;;;;;;;;4996809;28;19921;-60
2022/12/09 00:51:49;;;;;;;;;;;;;;;;;;5013499;28;19920;-59
2022/12/09 00:54:15;;;;;;;;;;;;;;;;;;4996550;28;21280;-59
2022/12/09 00:56:41;;;;;;;;;;;;;;;;;;4987526;28;20363;-60
2022/12/09 00:59:07;;;;;;;;;;;;;;;;;;5004206;28;19933;-60
2022/12/09 01:01:33;;;;;;;;;;;;;;;;;;4990812;28;19960;-60
2022/12/09 01:04:00;;;;;;;;;;;;;;;;;;4991933;28;19953;-60
2022/12/09 01:06:26;;;;;;;;;;;;;;;;;;5001143;28;19925;-59
2022/12/09 01:08:52;;;;;;;;;;;;;;;;;;5014500;28;19925;-60
2022/12/09 01:11:18;;;;;;;;;;;;;;;;;;4996305;28;19932;-60
2022/12/09 01:13:44;;;;;;;;;;;;;;;;;;4993129;28;19925;-60
2022/12/09 01:16:10;;;;;;;;;;;;;;;;;;4992496;28;20019;-60
2022/12/09 01:18:36;;;;;;;;;;;;;;;;;;5000805;28;19917;-60
2022/12/09 01:21:01;;;;;;;;;;;;;;;;;;4992908;28;19931;-60
2022/12/09 01:23:27;;;;;;;;;;;;;;;;;;5002037;28;20402;-60
2022/12/09 01:25:53;;;;;;;;;;;;;;;;;;4987802;28;19936;-60
2022/12/09 01:28:19;;;;;;;;;;;;;;;;;;4982577;28;20000;-60
2022/12/09 01:30:45;;;;;;;;;;;;;;;;;;4977006;28;20367;-60
2022/12/09 01:33:11;;;;;;;;;;;;;;;;;;5003107;28;19914;-59
2022/12/09 01:35:37;;;;;;;;;;;;;;;;;;4985280;28;19979;-59
2022/12/09 01:38:02;;;;;;;;;;;;;;;;;;4986150;28;20437;-58
2022/12/09 01:40:28;;;;;;;;;;;;;;;;;;4978689;28;19926;-60
2022/12/09 01:42:54;;;;;;;;;;;;;;;;;;4981880;28;19933;-61
2022/12/09 01:45:20;;;;;;;;;;;;;;;;;;4981160;28;19945;-59
2022/12/09 01:47:46;;;;;;;;;;;;;;;;;;4986018;28;19926;-59
2022/12/09 01:50:12;;;;;;;;;;;;;;;;;;4973847;28;19936;-60
2022/12/09 01:52:38;;;;;;;;;;;;;;;;;;4993468;28;19926;-60
2022/12/09 01:55:04;;;;;;;;;;;;;;;;;;4997502;28;19921;-60
2022/12/09 01:57:30;;;;;;;;;;;;;;;;;;4977728;28;20720;-59
2022/12/09 01:59:56;;;;;;;;;;;;;;;;;;4969201;28;20502;-60
2022/12/09 02:02:22;;;;;;;;;;;;;;;;;;4976477;28;19930;-60
2022/12/09 02:04:48;;;;;;;;;;;;;;;;;;4961658;28;19925;-60
2022/12/09 02:07:14;;;;;;;;;;;;;;;;;;4992796;28;19945;-59
2022/12/09 02:09:40;;;;;;;;;;;;;;;;;;4995827;28;19924;-60
2022/12/09 02:12:05;;;;;;;;;;;;;;;;;;4969587;28;19921;-58
2022/12/09 02:14:31;;;;;;;;;;;;;;;;;;4995572;28;20112;-59
2022/12/09 02:16:57;;;;;;;;;;;;;;;;;;4981856;28;19922;-60
2022/12/09 02:19:23;;;;;;;;;;;;;;;;;;4987936;28;19926;-60
2022/12/09 02:21:49;;;;;;;;;;;;;;;;;;4962849;28;20402;-60
2022/12/09 02:24:15;;;;;;;;;;;;;;;;;;4995273;28;19939;-60
2022/12/09 02:26:41;;;;;;;;;;;;;;;;;;4989760;28;19933;-59
2022/12/09 02:29:07;;;;;;;;;;;;;;;;;;4985962;28;19933;-60
2022/12/09 02:31:32;;;;;;;;;;;;;;;;;;4992963;28;20454;-59
2022/12/09 02:33:58;;;;;;;;;;;;;;;;;;4992243;28;20048;-60
2022/12/09 02:36:24;;;;;;;;;;;;;;;;;;4959187;28;19930;-58
2022/12/09 02:38:50;;;;;;;;;;;;;;;;;;4992308;28;19960;-61
2022/12/09 02:41:16;;;;;;;;;;;;;;;;;;4981871;28;19965;-59
2022/12/09 02:43:42;;;;;;;;;;;;;;;;;;4977736;28;20633;-57
2022/12/09 02:46:08;;;;;;;;;;;;;;;;;;4979486;28;19929;-60
2022/12/09 02:48:34;;;;;;;;;;;;;;;;;;4996447;28;20028;-59
2022/12/09 02:50:59;;;;;;;;;;;;;;;;;;4993019;28;20702;-60
2022/12/09 02:53:25;;;;;;;;;;;;;;;;;;5005139;28;19920;-59
2022/12/09 02:55:51;;;;;;;;;;;;;;;;;;4984439;28;20168;-60
2022/12/09 02:58:17;;;;;;;;;;;;;;;;;;4996957;28;19922;-59
2022/12/09 03:00:43;;;;;;;;;;;;;;;;;;4988285;28;20676;-60
2022/12/09 03:03:09;;;;;;;;;;;;;;;;;;4995295;28;19928;-60
2022/12/09 03:05:35;;;;;;;;;;;;;;;;;;4994134;28;20579;-58
2022/12/09 03:08:00;;;;;;;;;;;;;;;;;;5003647;28;19926;-59
2022/12/09 03:10:26;;;;;;;;;;;;;;;;;;4985896;28;20599;-60
2022/12/09 03:12:52;;;;;;;;;;;;;;;;;;4979277;28;19925;-61
2022/12/09 03:15:18;;;;;;;;;;;;;;;;;;4985382;28;20398;-60
2022/12/09 03:17:44;;;;;;;;;;;;;;;;;;4970196;28;19928;-59
2022/12/09 03:20:10;;;;;;;;;;;;;;;;;;4987533;28;20416;-60
2022/12/09 03:22:36;;;;;;;;;;;;;;;;;;4977222;28;19933;-59
2022/12/09 03:25:02;;;;;;;;;;;;;;;;;;4967883;28;20483;-59
2022/12/09 03:27:27;;;;;;;;;;;;;;;;;;4988089;28;20033;-58
2022/12/09 03:29:53;;;;;;;;;;;;;;;;;;4975441;28;24302;-59
2022/12/09 03:32:19;;;;;;;;;;;;;;;;;;4976776;28;19931;-59
2022/12/09 03:34:45;;;;;;;;;;;;;;;;;;4975265;28;19926;-60
2022/12/09 03:37:11;;;;;;;;;;;;;;;;;;4978392;28;19933;-59
2022/12/09 03:39:37;;;;;;;;;;;;;;;;;;4986437;28;19925;-60
2022/12/09 03:42:03;;;;;;;;;;;;;;;;;;4989040;28;20406;-60
2022/12/09 03:44:28;;;;;;;;;;;;;;;;;;4990458;28;19921;-59
2022/12/09 03:46:54;;;;;;;;;;;;;;;;;;4964829;28;20434;-60
2022/12/09 03:49:20;;;;;;;;;;;;;;;;;;4981466;28;19925;-60
2022/12/09 03:51:46;;;;;;;;;;;;;;;;;;4977638;28;19925;-58
2022/12/09 03:54:12;;;;;;;;;;;;;;;;;;4987143;28;19963;-60
2022/12/09 03:56:38;;;;;;;;;;;;;;;;;;4997141;28;19921;-59
2022/12/09 03:59:04;;;;;;;;;;;;;;;;;;4997163;28;20329;-59
2022/12/09 04:01:30;;;;;;;;;;;;;;;;;;4992682;28;19931;-59
2022/12/09 04:03:56;;;;;;;;;;;;;;;;;;4972476;28;20223;-60
2022/12/09 04:06:21;;;;;;;;;;;;;;;;;;4979498;28;20032;-60
2022/12/09 04:08:47;;;;;;;;;;;;;;;;;;4985160;28;20001;-61
2022/12/09 04:11:13;;;;;;;;;;;;;;;;;;4987595;28;19949;-59
2022/12/09 04:13:39;;;;;;;;;;;;;;;;;;4982666;28;19987;-61
2022/12/09 04:16:05;;;;;;;;;;;;;;;;;;4992989;28;20013;-61
2022/12/09 04:18:31;;;;;;;;;;;;;;;;;;4995408;28;19924;-60
2022/12/09 04:20:57;;;;;;;;;;;;;;;;;;4968655;28;19932;-60
2022/12/09 04:23:23;;;;;;;;;;;;;;;;;;4987420;28;19917;-60
2022/12/09 04:25:48;;;;;;;;;;;;;;;;;;4981303;28;19930;-59
2022/12/09 04:28:14;;;;;;;;;;;;;;;;;;4976733;28;19994;-59
2022/12/09 04:30:40;;;;;;;;;;;;;;;;;;4992908;28;19925;-60
2022/12/09 04:33:06;;;;;;;;;;;;;;;;;;4992962;28;19945;-60
2022/12/09 04:35:32;;;;;;;;;;;;;;;;;;4994860;28;19922;-60
2022/12/09 04:37:58;;;;;;;;;;;;;;;;;;4996724;28;19926;-60
2022/12/09 04:40:24;;;;;;;;;;;;;;;;;;4998321;28;19917;-59
2022/12/09 04:42:50;;;;;;;;;;;;;;;;;;4999708;28;20312;-60
2022/12/09 04:45:15;;;;;;;;;;;;;;;;;;4992111;28;24946;-60
2022/12/09 04:47:41;;;;;;;;;;;;;;;;;;4996712;28;20761;-60
2022/12/09 04:50:07;;;;;;;;;;;;;;;;;;5000630;28;20012;-59
2022/12/09 04:52:33;;;;;;;;;;;;;;;;;;4990353;28;20122;-59
2022/12/09 04:54:59;;;;;;;;;;;;;;;;;;4993050;28;19969;-60
2022/12/09 04:57:25;;;;;;;;;;;;;;;;;;4995197;28;20437;-59
2022/12/09 04:59:51;;;;;;;;;;;;;;;;;;4997393;28;19922;-60
2022/12/09 05:02:17;;;;;;;;;;;;;;;;;;5004610;28;19960;-60
2022/12/09 05:04:45;;;;;;;;;;;;;;;;;;4999250;28;20371;-60
2022/12/09 05:07:11;;;;;;;;;;;;;;;;;;4984750;28;20425;-59
2022/12/09 05:09:37;;;;;;;;;;;;;;;;;;5003872;28;19917;-59
2022/12/09 05:12:03;;;;;;;;;;;;;;;;;;4976971;28;20388;-60
2022/12/09 05:14:29;;;;;;;;;;;;;;;;;;5001600;28;19909;-60
2022/12/09 05:16:54;;;;;;;;;;;;;;;;;;4971285;28;19931;-60
2022/12/09 05:19:20;;;;;;;;;;;;;;;;;;4957164;28;21017;-60
2022/12/09 05:21:46;;;;;;;;;;;;;;;;;;4967271;28;19952;-58
2022/12/09 05:24:12;;;;;;;;;;;;;;;;;;4994039;28;20456;-60
2022/12/09 05:26:38;;;;;;;;;;;;;;;;;;4986170;28;19929;-60
2022/12/09 05:29:04;;;;;;;;;;;;;;;;;;4987033;28;20337;-61
2022/12/09 05:31:30;;;;;;;;;;;;;;;;;;4989171;28;20294;-59
2022/12/09 05:33:56;;;;;;;;;;;;;;;;;;4975149;28;20525;-60
2022/12/09 05:36:23;;;;;;;;;;;;;;;;;;4984551;28;19925;-59
2022/12/09 05:38:48;;;;;;;;;;;;;;;;;;4994346;28;19983;-60
2022/12/09 05:41:15;;;;;;;;;;;;;;;;;;4975686;28;19925;-61
2022/12/09 05:43:40;;;;;;;;;;;;;;;;;;4970430;28;20027;-60
2022/12/09 05:46:06;;;;;;;;;;;;;;;;;;4983554;28;19955;-59
2022/12/09 05:48:32;;;;;;;;;;;;;;;;;;4974083;28;20342;-60
2022/12/09 05:50:58;;;;;;;;;;;;;;;;;;4974683;28;20118;-60
2022/12/09 05:53:24;;;;;;;;;;;;;;;;;;4991978;28;20401;-59
2022/12/09 05:55:50;;;;;;;;;;;;;;;;;;4979424;28;20013;-58
2022/12/09 05:58:16;;;;;;;;;;;;;;;;;;4984729;28;20370;-60
2022/12/09 06:00:42;;;;;;;;;;;;;;;;;;4995789;28;19932;-60
2022/12/09 06:03:07;;;;;;;;;;;;;;;;;;4976717;28;19929;-61
2022/12/09 06:05:33;;;;;;;;;;;;;;;;;;4993389;28;20636;-58
2022/12/09 06:07:59;;;;;;;;;;;;;;;;;;4977884;28;20331;-59
2022/12/09 06:10:25;;;;;;;;;;;;;;;;;;4975258;28;19932;-60
2022/12/09 06:12:51;;;;;;;;;;;;;;;;;;4978327;28;20626;-59
2022/12/09 06:15:17;;;;;;;;;;;;;;;;;;4981295;28;19978;-60
2022/12/09 06:17:43;;;;;;;;;;;;;;;;;;4990216;28;19936;-60
2022/12/09 06:20:09;;;;;;;;;;;;;;;;;;4976562;28;20375;-59
2022/12/09 06:22:34;;;;;;;;;;;;;;;;;;4963235;28;19975;-57
2022/12/09 06:25:00;;;;;;;;;;;;;;;;;;4972250;28;19958;-59
2022/12/09 06:27:26;;;;;;;;;;;;;;;;;;4975092;28;20589;-59
2022/12/09 06:29:52;;;;;;;;;;;;;;;;;;4999609;28;19929;-57
2022/12/09 06:32:18;;;;;;;;;;;;;;;;;;5002276;28;19925;-59
2022/12/09 06:34:44;;;;;;;;;;;;;;;;;;4999046;28;19921;-59
2022/12/09 06:37:10;;;;;;;;;;;;;;;;;;4999927;28;20362;-59
2022/12/09 06:39:35;;;;;;;;;;;;;;;;;;4985542;28;19925;-56
2022/12/09 06:42:03;;;;;;;;;;;;;;;;;;4980388;28;19924;-59
2022/12/09 06:44:29;;;;;;;;;;;;;;;;;;4984655;28;19925;-56
2022/12/09 06:46:54;;;;;;;;;;;;;;;;;;4976217;28;19930;-56
2022/12/09 06:49:20;;;;;;;;;;;;;;;;;;4991407;28;19920;-59
2022/12/09 06:51:46;;;;;;;;;;;;;;;;;;4983823;28;19926;-60
2022/12/09 06:54:12;;;;;;;;;;;;;;;;;;4999881;28;20295;-59
2022/12/09 06:56:38;;;;;;;;;;;;;;;;;;4992757;28;20016;-59
2022/12/09 06:59:04;;;;;;;;;;;;;;;;;;4990274;28;19925;-58
2022/12/09 07:01:30;;;;;;;;;;;;;;;;;;4998657;28;19925;-59
2022/12/09 07:03:56;;;;;;;;;;;;;;;;;;4972113;28;20809;-57
2022/12/09 07:06:22;;;;;;;;;;;;;;;;;;4978353;28;19922;-59
2022/12/09 07:08:47;;;;;;;;;;;;;;;;;;4975167;28;19929;-55
2022/12/09 07:11:13;;;;;;;;;;;;;;;;;;4987601;28;25855;-58
2022/12/09 07:13:39;;;;;;;;;;;;;;;;;;4972090;28;19965;-59
2022/12/09 07:16:05;;;;;;;;;;;;;;;;;;4999423;28;19932;-59
2022/12/09 07:18:31;;;;;;;;;;;;;;;;;;5001506;28;20445;-59
2022/12/09 07:20:57;;;;;;;;;;;;;;;;;;4991908;28;19922;-56
2022/12/09 07:23:22;;;;;;;;;;;;;;;;;;5004717;28;19932;-58
2022/12/09 07:25:48;;;;;;;;;;;;;;;;;;4981827;28;19930;-57
2022/12/09 07:28:14;;;;;;;;;;;;;;;;;;4998704;28;21350;-59
2022/12/09 07:30:40;;;;;;;;;;;;;;;;;;4975025;28;20023;-59
2022/12/09 07:33:06;;;;;;;;;;;;;;;;;;4993869;28;19961;-58
2022/12/09 07:35:32;;;;;;;;;;;;;;;;;;4976362;28;20469;-59
2022/12/09 07:37:58;;;;;;;;;;;;;;;;;;4972542;28;22174;-59
2022/12/09 07:40:23;;;;;;;;;;;;;;;;;;4972663;28;19933;-58
2022/12/09 07:42:49;;;;;;;;;;;;;;;;;;4983155;28;20037;-59
2022/12/09 07:45:16;;;;;;;;;;;;;;;;;;4989375;28;19968;-59
2022/12/09 07:47:42;;;;;;;;;;;;;;;;;;4982303;28;20821;-58
2022/12/09 07:50:08;;;;;;;;;;;;;;;;;;4976355;28;20615;-56
2022/12/09 07:52:34;;;;;;;;;;;;;;;;;;4991559;28;19925;-58
2022/12/09 07:55:00;;;;;;;;;;;;;;;;;;4998765;28;19964;-57
2022/12/09 07:57:26;;;;;;;;;;;;;;;;;;4990770;28;19927;-55
2022/12/09 07:59:52;;;;;;;;;;;;;;;;;;4989875;28;19926;-59
2022/12/09 08:02:18;;;;;;;;;;;;;;;;;;4991574;28;20286;-56
2022/12/09 08:04:44;;;;;;;;;;;;;;;;;;4985730;28;19954;-58
2022/12/09 08:07:10;;;;;;;;;;;;;;;;;;4989430;28;19931;-57
2022/12/09 08:09:35;;;;;;;;;;;;;;;;;;4980119;28;19956;-58
2022/12/09 08:12:01;;;;;;;;;;;;;;;;;;5006329;28;20028;-59
2022/12/09 08:14:27;;;;;;;;;;;;;;;;;;4994110;28;20397;-57
2022/12/09 08:16:53;;;;;;;;;;;;;;;;;;4981366;28;19959;-59
2022/12/09 08:19:19;;;;;;;;;;;;;;;;;;4966851;28;19921;-58
2022/12/09 08:21:45;;;;;;;;;;;;;;;;;;4973517;28;19928;-57
2022/12/09 08:24:11;;;;;;;;;;;;;;;;;;4993616;28;19926;-59
2022/12/09 08:26:38;;;;;;;;;;;;;;;;;;4992920;28;20023;-56
2022/12/09 08:29:03;;;;;;;;;;;;;;;;;;4981336;28;20368;-59
2022/12/09 08:31:29;;;;;;;;;;;;;;;;;;4986922;28;19933;-59
2022/12/09 08:33:55;;;;;;;;;;;;;;;;;;4990624;28;20383;-59
2022/12/09 08:36:21;;;;;;;;;;;;;;;;;;4975564;28;19925;-59
2022/12/09 08:38:47;;;;;;;;;;;;;;;;;;5004415;28;19921;-58
2022/12/09 08:41:13;;;;;;;;;;;;;;;;;;4987541;28;19931;-58
2022/12/09 08:43:39;;;;;;;;;;;;;;;;;;4992931;28;19924;-59
2022/12/09 08:46:05;;;;;;;;;;;;;;;;;;4990434;28;19925;-59
2022/12/09 08:48:30;;;;;;;;;;;;;;;;;;4995275;28;19933;-59
2022/12/09 08:50:56;;;;;;;;;;;;;;;;;;4971753;28;19914;-59
2022/12/09 08:53:22;;;;;;;;;;;;;;;;;;4994713;28;20056;-57
2022/12/09 08:55:48;;;;;;;;;;;;;;;;;;4965356;28;19929;-59
2022/12/09 08:58:14;;;;;;;;;;;;;;;;;;4981892;28;20652;-57
2022/12/09 09:00:40;;;;;;;;;;;;;;;;;;4991576;28;19921;-58
2022/12/09 09:03:06;;;;;;;;;;;;;;;;;;4999411;28;19912;-58
2022/12/09 09:05:32;;;;;;;;;;;;;;;;;;5001714;28;20383;-57
2022/12/09 09:07:57;;;;;;;;;;;;;;;;;;5003079;28;19936;-59
2022/12/09 09:10:23;;;;;;;;;;;;;;;;;;4997898;28;19929;-58
2022/12/09 09:12:49;;;;;;;;;;;;;;;;;;4978184;28;20611;-59
2022/12/09 09:15:16;;;;;;;;;;;;;;;;;;4997968;28;20021;-60
2022/12/09 09:17:42;;;;;;;;;;;;;;;;;;4993133;28;20327;-56
2022/12/09 09:20:07;;;;;;;;;;;;;;;;;;4977748;28;19932;-59
2022/12/09 09:22:33;;;;;;;;;;;;;;;;;;4995289;28;20260;-59
2022/12/09 09:24:59;;;;;;;;;;;;;;;;;;5000479;28;20820;-59
2022/12/09 09:27:25;;;;;;;;;;;;;;;;;;4974018;28;20394;-56
2022/12/09 09:29:51;;;;;;;;;;;;;;;;;;4994745;28;19968;-57
2022/12/09 09:32:17;;;;;;;;;;;;;;;;;;4977923;28;19929;-58
2022/12/09 09:34:44;;;;;;;;;;;;;;;;;;4984391;28;19922;-58
2022/12/09 09:37:10;;;;;;;;;;;;;;;;;;4989782;28;19967;-59
2022/12/09 09:39:36;;;;;;;;;;;;;;;;;;4997191;28;19930;-59
2022/12/09 09:42:02;;;;;;;;;;;;;;;;;;5001703;28;19953;-57
2022/12/09 09:44:28;;;;;;;;;;;;;;;;;;4998604;28;19918;-58
2022/12/09 09:46:54;;;;;;;;;;;;;;;;;;4976962;28;19937;-56
2022/12/09 09:49:20;;;;;;;;;;;;;;;;;;4981676;28;20010;-59
2022/12/09 09:51:45;;;;;;;;;;;;;;;;;;4987909;28;19921;-59
2022/12/09 09:54:11;;;;;;;;;;;;;;;;;;4997576;28;19926;-59
2022/12/09 09:56:39;;;;;;;;;;;;;;;;;;5006089;28;20357;-56
2022/12/09 09:59:05;;;;;;;;;;;;;;;;;;4994941;28;19955;-59
2022/12/09 10:01:31;;;;;;;;;;;;;;;;;;4991707;28;20015;-57
2022/12/09 10:03:57;;;;;;;;;;;;;;;;;;4975235;28;19926;-59
2022/12/09 10:06:23;;;;;;;;;;;;;;;;;;5005031;28;19991;-58
2022/12/09 10:08:49;;;;;;;;;;;;;;;;;;4985072;28;19932;-59
2022/12/09 10:11:15;;;;;;;;;;;;;;;;;;4996557;28;19922;-57
2022/12/09 10:13:40;;;;;;;;;;;;;;;;;;4994803;28;19925;-58
2022/12/09 10:16:06;;;;;;;;;;;;;;;;;;4994116;28;19926;-59
2022/12/09 10:18:32;;;;;;;;;;;;;;;;;;4984961;28;20605;-57
2022/12/09 10:20:58;;;;;;;;;;;;;;;;;;5002487;28;19925;-59
2022/12/09 10:23:24;;;;;;;;;;;;;;;;;;4987836;28;20381;-58
2022/12/09 10:25:50;;;;;;;;;;;;;;;;;;4991193;28;19937;-59
2022/12/09 10:28:16;;;;;;;;;;;;;;;;;;5000496;28;19932;-59
2022/12/09 10:30:42;;;;;;;;;;;;;;;;;;4992279;28;19922;-56
2022/12/09 10:33:07;;;;;;;;;;;;;;;;;;4979274;28;20338;-59
2022/12/09 10:35:33;;;;;;;;;;;;;;;;;;5008921;28;20365;-59
2022/12/09 10:37:59;;;;;;;;;;;;;;;;;;4992556;28;20635;-58
2022/12/09 10:40:25;;;;;;;;;;;;;;;;;;4999713;28;19921;-57
2022/12/09 10:45:35;;;;;;;;;;;;;;;;;;5010669;28;19939;-59
2022/12/09 10:48:01;;;;;;;;;;;;;;;;;;4992968;28;20053;-59
2022/12/09 10:50:28;;;;;;;;;;;;;;;;;;4983388;28;19929;-59
2022/12/09 10:52:54;;;;;;;;;;;;;;;;;;4995235;28;19985;-59
2022/12/09 10:55:19;;;;;;;;;;;;;;;;;;4992140;28;19975;-58
2022/12/09 10:57:45;;;;;;;;;;;;;;;;;;4992940;28;19948;-59
2022/12/09 11:00:11;;;;;;;;;;;;;;;;;;5003615;28;20445;-57
2022/12/09 11:02:37;;;;;;;;;;;;;;;;;;4988581;28;19982;-57
2022/12/09 11:05:03;;;;;;;;;;;;;;;;;;4994021;28;20421;-59
2022/12/09 11:07:29;;;;;;;;;;;;;;;;;;4993666;28;19925;-59
2022/12/09 11:09:55;;;;;;;;;;;;;;;;;;4984350;28;19921;-59
2022/12/09 11:12:21;;;;;;;;;;;;;;;;;;4974039;28;20062;-57
2022/12/09 11:14:47;;;;;;;;;;;;;;;;;;4991802;28;19925;-58
2022/12/09 11:17:12;;;;;;;;;;;;;;;;;;5001852;28;19932;-58
2022/12/09 11:19:38;;;;;;;;;;;;;;;;;;4989417;28;19930;-57
2022/12/09 11:22:04;;;;;;;;;;;;;;;;;;4988572;28;20046;-59
2022/12/09 11:24:30;;;;;;;;;;;;;;;;;;4979928;28;19926;-58
2022/12/09 11:26:56;;;;;;;;;;;;;;;;;;4992490;28;19932;-59
2022/12/09 11:29:22;;;;;;;;;;;;;;;;;;4997854;28;20458;-59
2022/12/09 11:31:48;;;;;;;;;;;;;;;;;;4983610;28;20098;-58
2022/12/09 11:34:14;;;;;;;;;;;;;;;;;;4977865;28;19925;-57
2022/12/09 11:36:40;;;;;;;;;;;;;;;;;;4990445;28;19921;-56
2022/12/09 11:39:06;;;;;;;;;;;;;;;;;;4997223;28;20391;-57
2022/12/09 11:44:16;;;;;;;;;;;;;;;;;;4994025;28;20428;-59
2022/12/09 11:46:42;;;;;;;;;;;;;;;;;;5000897;28;19930;-58
2022/12/09 11:49:08;;;;;;;;;;;;;;;;;;4987968;28;20401;-59
2022/12/09 11:51:34;;;;;;;;;;;;;;;;;;4995624;28;19952;-59
2022/12/09 11:54:01;;;;;;;;;;;;;;;;;;4996093;28;19976;-56
2022/12/09 11:56:27;;;;;;;;;;;;;;;;;;4983171;28;19959;-59
2022/12/09 11:58:52;;;;;;;;;;;;;;;;;;4979587;28;20287;-59
2022/12/09 12:01:18;;;;;;;;;;;;;;;;;;4988860;28;19921;-58
2022/12/09 12:03:46;;;;;;;;;;;;;;;;;;4982610;28;20032;-59
2022/12/09 12:06:11;;;;;;;;;;;;;;;;;;4999454;28;19925;-59
2022/12/09 12:08:37;;;;;;;;;;;;;;;;;;5003889;28;20499;-59
2022/12/09 12:11:03;;;;;;;;;;;;;;;;;;5001314;28;19929;-57
2022/12/09 12:13:29;;;;;;;;;;;;;;;;;;4995794;28;19918;-58
2022/12/09 12:15:55;;;;;;;;;;;;;;;;;;4992971;28;19929;-58
2022/12/09 12:18:21;;;;;;;;;;;;;;;;;;4984226;28;20173;-58
2022/12/09 12:20:47;;;;;;;;;;;;;;;;;;4985529;28;20335;-56
2022/12/09 12:23:13;;;;;;;;;;;;;;;;;;4996429;28;19928;-57
2022/12/09 12:25:39;;;;;;;;;;;;;;;;;;4993467;28;19943;-57
2022/12/09 12:28:04;;;;;;;;;;;;;;;;;;4980960;28;19929;-57
2022/12/09 12:30:30;;;;;;;;;;;;;;;;;;4981709;28;19925;-58
2022/12/09 12:32:56;;;;;;;;;;;;;;;;;;4986416;28;19940;-55
2022/12/09 12:35:22;;;;;;;;;;;;;;;;;;4991632;28;19921;-56
2022/12/09 12:37:48;;;;;;;;;;;;;;;;;;4999588;28;19924;-57
2022/12/09 12:40:14;;;;;;;;;;;;;;;;;;4993396;28;19926;-58
2022/12/09 12:42:40;;;;;;;;;;;;;;;;;;4996033;28;20384;-57
2022/12/09 12:47:51;;;;;;;;;;;;;;;;;;4984726;28;20403;-57
2022/12/09 12:50:17;;;;;;;;;;;;;;;;;;4967759;28;20395;-57
2022/12/09 12:52:43;;;;;;;;;;;;;;;;;;4993211;28;19928;-56
2022/12/09 12:55:09;;;;;;;;;;;;;;;;;;4991931;28;20379;-58
2022/12/09 12:57:35;;;;;;;;;;;;;;;;;;4972935;28;20000;-58
2022/12/09 13:00:01;;;;;;;;;;;;;;;;;;4977578;28;20361;-57
2022/12/09 13:02:27;;;;;;;;;;;;;;;;;;4975299;28;19976;-57
2022/12/09 13:04:53;;;;;;;;;;;;;;;;;;4970303;28;19923;-55
2022/12/09 13:07:19;;;;;;;;;;;;;;;;;;5008999;28;19932;-57
2022/12/09 13:09:45;;;;;;;;;;;;;;;;;;4989879;28;19924;-57
2022/12/09 13:12:11;;;;;;;;;;;;;;;;;;4992544;28;20314;-55
2022/12/09 13:14:36;;;;;;;;;;;;;;;;;;4965511;28;20299;-56
2022/12/09 13:17:02;;;;;;;;;;;;;;;;;;4979582;28;19918;-57
2022/12/09 13:19:28;;;;;;;;;;;;;;;;;;4974657;28;20342;-55
2022/12/09 13:21:54;;;;;;;;;;;;;;;;;;4974356;28;19926;-55
2022/12/09 13:24:21;;;;;;;;;;;;;;;;;;4969199;28;19963;-56
2022/12/09 13:26:47;;;;;;;;;;;;;;;;;;4978951;28;19932;-54
2022/12/09 13:29:13;;;;;;;;;;;;;;;;;;4995766;28;20309;-56
2022/12/09 13:31:39;;;;;;;;;;;;;;;;;;4981578;28;19971;-56
2022/12/09 13:34:05;;;;;;;;;;;;;;;;;;4977745;28;19921;-54
2022/12/09 13:36:30;;;;;;;;;;;;;;;;;;4998747;28;20462;-55
2022/12/09 13:38:56;;;;;;;;;;;;;;;;;;4983136;28;19932;-54
2022/12/09 13:41:22;;;;;;;;;;;;;;;;;;4992625;28;19960;-52
2022/12/09 13:43:48;;;;;;;;;;;;;;;;;;4938561;28;20410;-53
2022/12/09 13:46:14;;;;;;;;;;;;;;;;;;5001674;28;19925;-53
2022/12/09 13:48:40;;;;;;;;;;;;;;;;;;4992490;28;19925;-53
2022/12/09 13:51:06;;;;;;;;;;;;;;;;;;4979188;28;20315;-53
2022/12/09 13:53:32;;;;;;;;;;;;;;;;;;4991628;28;19933;-55
2022/12/09 13:55:58;;;;;;;;;;;;;;;;;;5000240;28;19921;-56
2022/12/09 13:58:24;;;;;;;;;;;;;;;;;;5000466;28;19917;-55
2022/12/09 14:00:50;;;;;;;;;;;;;;;;;;5002273;28;20014;-55
2022/12/09 14:03:16;;;;;;;;;;;;;;;;;;4976652;28;19921;-55
2022/12/09 14:05:42;;;;;;;;;;;;;;;;;;4985282;28;19940;-54
2022/12/09 14:08:07;;;;;;;;;;;;;;;;;;4991053;28;20173;-55
2022/12/09 14:10:33;;;;;;;;;;;;;;;;;;4997112;28;20303;-55
2022/12/09 14:12:59;;;;;;;;;;;;;;;;;;4985536;28;19999;-55
2022/12/09 14:15:27;;;;;;;;;;;;;;;;;;4996670;28;19933;-55
2022/12/09 14:17:53;;;;;;;;;;;;;;;;;;4948126;28;19926;-55
2022/12/09 14:20:20;;;;;;;;;;;;;;;;;;4993904;28;19917;-55
2022/12/09 14:22:45;;;;;;;;;;;;;;;;;;4966888;28;19968;-55
2022/12/09 14:25:11;;;;;;;;;;;;;;;;;;4978908;28;19922;-55
2022/12/09 14:27:37;;;;;;;;;;;;;;;;;;4999756;28;20074;-55
2022/12/09 14:30:03;;;;;;;;;;;;;;;;;;4981949;28;19929;-55
2022/12/09 14:32:29;;;;;;;;;;;;;;;;;;4991486;28;20007;-56
2022/12/09 14:34:55;;;;;;;;;;;;;;;;;;4982964;28;20370;-54
2022/12/09 14:37:21;;;;;;;;;;;;;;;;;;4983675;28;19927;-55
2022/12/09 14:39:47;;;;;;;;;;;;;;;;;;4992095;28;20391;-55
2022/12/09 14:42:12;;;;;;;;;;;;;;;;;;4974098;28;20409;-55
2022/12/09 14:44:38;;;;;;;;;;;;;;;;;;4974650;28;20449;-56
2022/12/09 14:47:04;;;;;;;;;;;;;;;;;;4975067;28;19929;-55
2022/12/09 14:49:30;;;;;;;;;;;;;;;;;;4975929;28;19958;-56
2022/12/09 14:51:56;;;;;;;;;;;;;;;;;;4967754;28;23148;-55
2022/12/09 14:54:22;;;;;;;;;;;;;;;;;;4974857;28;19930;-55
2022/12/09 14:56:48;;;;;;;;;;;;;;;;;;4987073;28;19937;-55
2022/12/09 14:59:14;;;;;;;;;;;;;;;;;;4966030;28;20125;-56
2022/12/09 15:01:39;;;;;;;;;;;;;;;;;;4949647;28;19989;-56
2022/12/09 15:04:05;;;;;;;;;;;;;;;;;;4966547;28;19925;-55
2022/12/09 15:06:32;;;;;;;;;;;;;;;;;;5000873;28;20742;-56
2022/12/09 15:08:58;;;;;;;;;;;;;;;;;;4993570;28;19957;-55
2022/12/09 15:11:24;;;;;;;;;;;;;;;;;;5007294;28;19975;-55
2022/12/09 15:13:50;;;;;;;;;;;;;;;;;;4964736;28;19964;-56
2022/12/09 15:16:16;;;;;;;;;;;;;;;;;;4947905;28;20465;-55
2022/12/09 15:18:41;;;;;;;;;;;;;;;;;;4967521;28;20012;-55
2022/12/09 15:21:07;;;;;;;;;;;;;;;;;;4980427;28;19932;-55
2022/12/09 15:23:33;;;;;;;;;;;;;;;;;;4964762;28;21013;-55
2022/12/09 15:25:59;;;;;;;;;;;;;;;;;;4961394;28;20183;-55
2022/12/09 15:28:25;;;;;;;;;;;;;;;;;;4972838;28;19925;-55
2022/12/09 15:30:51;;;;;;;;;;;;;;;;;;4976335;28;19983;-55
2022/12/09 15:33:17;;;;;;;;;;;;;;;;;;4982999;28;19981;-56
2022/12/09 15:35:42;;;;;;;;;;;;;;;;;;4970830;28;20072;-55
2022/12/09 15:38:08;;;;;;;;;;;;;;;;;;4938157;28;20434;-56
2022/12/09 15:40:34;;;;;;;;;;;;;;;;;;4981980;28;19932;-56
2022/12/09 15:43:00;;;;;;;;;;;;;;;;;;4975651;28;19925;-55
2022/12/09 15:45:26;;;;;;;;;;;;;;;;;;4980417;28;20405;-56
2022/12/09 15:47:52;;;;;;;;;;;;;;;;;;4962323;28;20164;-55
2022/12/09 15:50:19;;;;;;;;;;;;;;;;;;4938604;28;20036;-55
2022/12/09 15:52:45;;;;;;;;;;;;;;;;;;4972494;28;19926;-55
2022/12/09 15:55:11;;;;;;;;;;;;;;;;;;4991754;28;19956;-55
2022/12/09 15:57:37;;;;;;;;;;;;;;;;;;4962969;28;19926;-55
2022/12/09 16:00:03;;;;;;;;;;;;;;;;;;4980989;28;19995;-55
2022/12/09 16:02:28;;;;;;;;;;;;;;;;;;4951595;28;19925;-55
2022/12/09 16:04:54;;;;;;;;;;;;;;;;;;4982749;28;20026;-55
2022/12/09 16:07:20;;;;;;;;;;;;;;;;;;4966867;28;19925;-55
2022/12/09 16:09:46;;;;;;;;;;;;;;;;;;4955534;28;20063;-55
2022/12/09 16:12:12;;;;;;;;;;;;;;;;;;4960400;28;19926;-55
2022/12/09 16:14:38;;;;;;;;;;;;;;;;;;4970955;28;20386;-55
2022/12/09 16:17:04;;;;;;;;;;;;;;;;;;4968276;28;19960;-55
2022/12/09 16:19:30;;;;;;;;;;;;;;;;;;4945195;28;19925;-55
2022/12/09 16:21:55;;;;;;;;;;;;;;;;;;4949469;28;19917;-55
2022/12/09 16:24:21;;;;;;;;;;;;;;;;;;4932670;28;20281;-56
2022/12/09 16:26:47;;;;;;;;;;;;;;;;;;4953810;28;19937;-56
2022/12/09 16:29:13;;;;;;;;;;;;;;;;;;4964343;28;20472;-55
2022/12/09 16:31:39;;;;;;;;;;;;;;;;;;4950915;28;19928;-55
2022/12/09 16:34:05;;;;;;;;;;;;;;;;;;4987603;28;20309;-55
2022/12/09 16:36:31;;;;;;;;;;;;;;;;;;4973322;28;20461;-55
2022/12/09 16:38:57;;;;;;;;;;;;;;;;;;4986841;28;25887;-55
2022/12/09 16:41:23;;;;;;;;;;;;;;;;;;4972062;28;19979;-55
2022/12/09 16:43:48;;;;;;;;;;;;;;;;;;4970718;28;20382;-55